Time;durP1;ratioP1;P1;durP2;ratioP2;P2;SDS_P1;SDS_P2;PMS_P1;PMS_P2;Temp;Humidity;BMP_temperature;BMP_pressure;BME280_temperature;BME280_humidity;BME280_pressure;Samples;Min_cycle;Max_cycle;Signal;HPM_P1;HPM_P2
2024/04/04 00:02:28;;;;;;;3.05;1.30;;;;;;;;;;5000896;29;20041;-81
2024/04/04 00:05:03;;;;;;;3.60;1.42;;;;;;;;;;4971809;29;20049;-81
2024/04/04 00:07:34;;;;;;;5.07;1.45;;;;;;;;;;4959768;29;20057;-82
2024/04/04 00:10:09;;;;;;;3.92;1.50;;;;;;;;;;4992655;29;20413;-81
2024/04/04 00:12:42;;;;;;;7.13;1.40;;;;;;;;;;5007544;29;20156;-81
2024/04/04 00:15:15;;;;;;;4.18;1.52;;;;;;;;;;5009031;29;20056;-81
2024/04/04 00:17:46;;;;;;;4.50;1.25;;;;;;;;;;5006148;29;20132;-82
2024/04/04 00:20:21;;;;;;;5.47;1.85;;;;;;;;;;5008186;29;20021;-82
2024/04/04 00:22:54;;;;;;;5.45;1.73;;;;;;;;;;5007636;29;20113;-82
2024/04/04 00:25:28;;;;;;;5.30;2.00;;;;;;;;;;5009414;29;20056;-83
2024/04/04 00:28:00;;;;;;;4.88;1.50;;;;;;;;;;5006213;29;20037;-81
2024/04/04 00:30:34;;;;;;;5.55;1.40;;;;;;;;;;5007237;29;20048;-82
2024/04/04 00:33:05;;;;;;;5.43;1.88;;;;;;;;;;4993675;29;20145;-82
2024/04/04 00:35:39;;;;;;;7.50;2.15;;;;;;;;;;4993008;29;20484;-81
2024/04/04 00:38:10;;;;;;;4.90;1.45;;;;;;;;;;4991366;29;20528;-81
2024/04/04 00:40:45;;;;;;;6.88;1.83;;;;;;;;;;5009282;29;20045;-81
2024/04/04 00:43:16;;;;;;;4.80;1.90;;;;;;;;;;4990147;29;20057;-81
2024/04/04 00:45:48;;;;;;;7.75;2.03;;;;;;;;;;4997521;29;20136;-81
2024/04/04 00:48:21;;;;;;;6.68;2.08;;;;;;;;;;4993860;29;20117;-82
2024/04/04 00:50:54;;;;;;;5.80;2.63;;;;;;;;;;5005483;29;20607;-81
2024/04/04 00:53:26;;;;;;;5.90;2.03;;;;;;;;;;5006977;29;20504;-82
2024/04/04 00:56:01;;;;;;;7.20;2.45;;;;;;;;;;5008107;29;20076;-81
2024/04/04 00:58:34;;;;;;;5.68;2.20;;;;;;;;;;4991920;29;20152;-81
2024/04/04 01:01:06;;;;;;;5.13;1.85;;;;;;;;;;5009054;29;20052;-82
2024/04/04 01:03:37;;;;;;;5.65;2.42;;;;;;;;;;5008499;29;20055;-81
2024/04/04 01:06:09;;;;;;;7.00;2.72;;;;;;;;;;5009029;29;20105;-82
2024/04/04 01:08:42;;;;;;;5.97;2.57;;;;;;;;;;4995867;29;20179;-82
2024/04/04 01:11:17;;;;;;;6.82;2.10;;;;;;;;;;5008559;29;20524;-82
2024/04/04 01:13:49;;;;;;;9.48;2.95;;;;;;;;;;4994777;29;20049;-83
2024/04/04 01:16:21;;;;;;;9.05;2.20;;;;;;;;;;5011572;29;20057;-81
2024/04/04 01:18:52;;;;;;;5.88;2.10;;;;;;;;;;5009336;29;20057;-81
2024/04/04 01:21:25;;;;;;;4.53;2.38;;;;;;;;;;5003277;29;20065;-81
2024/04/04 01:23:59;;;;;;;6.32;2.30;;;;;;;;;;4997487;29;20058;-82
2024/04/04 01:26:31;;;;;;;6.20;2.60;;;;;;;;;;4994187;29;20060;-81
2024/04/04 01:29:02;;;;;;;6.22;2.10;;;;;;;;;;5004950;29;20134;-82
2024/04/04 01:31:37;;;;;;;5.77;2.10;;;;;;;;;;4992172;29;20124;-82
2024/04/04 01:34:08;;;;;;;4.93;2.10;;;;;;;;;;4993832;29;20057;-81
2024/04/04 01:36:40;;;;;;;6.68;2.17;;;;;;;;;;4992714;29;20061;-81
2024/04/04 01:39:14;;;;;;;5.78;2.20;;;;;;;;;;4993119;29;20064;-82
2024/04/04 01:44:55;;;;;;;3.92;2.10;;;;;;;;;;5012550;29;20069;-82
2024/04/04 01:47:47;;;;;;;4.88;2.33;;;;;;;;;;4974091;29;20866;-82
2024/04/04 01:50:21;;;;;;;5.78;1.83;;;;;;;;;;4979076;29;20697;-82
2024/04/04 01:52:52;;;;;;;7.15;2.08;;;;;;;;;;5004841;29;20046;-82
2024/04/04 01:55:29;;;;;;;6.75;2.65;;;;;;;;;;5178303;23;21248;-81
2024/04/04 01:58:01;;;;;;;6.72;2.45;;;;;;;;;;5000246;29;20081;-82
2024/04/04 02:00:34;;;;;;;4.53;2.22;;;;;;;;;;5017048;29;20053;-80
2024/04/04 02:03:05;;;;;;;6.82;2.10;;;;;;;;;;4989064;29;22799;-81
2024/04/04 02:05:37;;;;;;;7.25;2.25;;;;;;;;;;5013878;29;20089;-82
2024/04/04 02:08:10;;;;;;;5.57;2.25;;;;;;;;;;5010283;29;20756;-81
2024/04/04 02:10:43;;;;;;;5.85;2.10;;;;;;;;;;5012429;29;20063;-81
2024/04/04 02:13:17;;;;;;;6.07;1.98;;;;;;;;;;4988225;29;20085;-82
2024/04/04 02:15:49;;;;;;;5.05;2.50;;;;;;;;;;5010889;29;20499;-81
2024/04/04 02:18:21;;;;;;;5.63;2.05;;;;;;;;;;5028676;29;20527;-81
2024/04/04 02:20:53;;;;;;;6.65;2.70;;;;;;;;;;4996141;29;20071;-81
2024/04/04 02:23:24;;;;;;;4.75;2.05;;;;;;;;;;5015364;29;20542;-82
2024/04/04 02:25:59;;;;;;;8.35;2.67;;;;;;;;;;5007072;29;20042;-81
2024/04/04 02:28:30;;;;;;;4.72;2.15;;;;;;;;;;5010450;29;20058;-82
2024/04/04 02:31:02;;;;;;;8.18;2.50;;;;;;;;;;4979282;29;20065;-81
2024/04/04 02:33:36;;;;;;;5.70;2.03;;;;;;;;;;4994513;29;20049;-81
2024/04/04 02:36:08;;;;;;;5.82;1.92;;;;;;;;;;4999885;29;20156;-83
2024/04/04 02:38:41;;;;;;;5.00;1.67;;;;;;;;;;5019964;29;20057;-83
2024/04/04 02:41:15;;;;;;;6.05;1.75;;;;;;;;;;5017826;29;20719;-82
2024/04/04 02:43:46;;;;;;;4.38;1.73;;;;;;;;;;5009112;29;20049;-82
2024/04/04 02:46:18;;;;;;;5.15;2.42;;;;;;;;;;5007497;29;20065;-82
2024/04/04 02:48:52;;;;;;;7.88;2.22;;;;;;;;;;5013337;29;20586;-82
2024/04/04 02:51:23;;;;;;;4.80;1.85;;;;;;;;;;4996419;29;20049;-81
2024/04/04 02:53:56;;;;;;;2.67;1.60;;;;;;;;;;5015478;29;20057;-81
2024/04/04 02:56:29;;;;;;;5.75;2.88;;;;;;;;;;4999108;29;20515;-81
2024/04/04 02:59:00;;;;;;;5.57;2.10;;;;;;;;;;5002698;29;20082;-81
2024/04/04 03:01:33;;;;;;;5.57;1.73;;;;;;;;;;5018366;29;20470;-81
2024/04/04 03:04:04;;;;;;;4.97;1.65;;;;;;;;;;5021000;29;20050;-81
2024/04/04 03:06:36;;;;;;;5.55;1.63;;;;;;;;;;5000873;29;20421;-81
2024/04/04 03:09:09;;;;;;;9.13;2.05;;;;;;;;;;5014250;29;20072;-80
2024/04/04 03:11:43;;;;;;;6.40;1.92;;;;;;;;;;5009897;29;20071;-81
2024/04/04 03:14:13;;;;;;;5.80;1.70;;;;;;;;;;5014786;29;20400;-82
2024/04/04 03:16:46;;;;;;;5.38;1.85;;;;;;;;;;4989317;29;20057;-80
2024/04/04 03:19:16;;;;;;;5.78;1.73;;;;;;;;;;5021387;29;20057;-81
2024/04/04 03:21:50;;;;;;;4.70;1.92;;;;;;;;;;4997459;29;20841;-80
2024/04/04 03:24:21;;;;;;;3.30;1.55;;;;;;;;;;4998941;29;20428;-81
2024/04/04 03:26:56;;;;;;;9.65;1.80;;;;;;;;;;5012284;29;20054;-81
2024/04/04 03:29:26;;;;;;;6.88;1.80;;;;;;;;;;4994240;29;20083;-81
2024/04/04 03:31:58;;;;;;;5.43;1.95;;;;;;;;;;4995459;29;20107;-81
2024/04/04 03:34:31;;;;;;;4.65;1.50;;;;;;;;;;5002499;29;20054;-79
2024/04/04 03:37:03;;;;;;;4.93;1.63;;;;;;;;;;5026569;29;20069;-80
2024/04/04 03:39:35;;;;;;;6.47;2.22;;;;;;;;;;5036451;29;20061;-80
2024/04/04 03:42:10;;;;;;;4.55;1.80;;;;;;;;;;5035281;29;20056;-81
2024/04/04 03:44:42;;;;;;;4.45;1.58;;;;;;;;;;5013356;29;20061;-80
2024/04/04 03:47:13;;;;;;;4.18;1.48;;;;;;;;;;5015702;29;20478;-80
2024/04/04 03:49:48;;;;;;;5.50;1.67;;;;;;;;;;5002375;29;20566;-79
2024/04/04 03:52:19;;;;;;;5.22;1.70;;;;;;;;;;4999603;29;20053;-79
2024/04/04 03:54:52;;;;;;;3.47;1.38;;;;;;;;;;5015233;29;20109;-80
2024/04/04 03:57:25;;;;;;;6.55;1.58;;;;;;;;;;5008427;29;20086;-81
2024/04/04 04:00:03;;;;;;;7.10;2.10;;;;;;;;;;5012540;29;20049;-80
2024/04/04 04:02:35;;;;;;;2.47;1.45;;;;;;;;;;4997350;29;20115;-80
2024/04/04 04:05:10;;;;;;;3.90;1.50;;;;;;;;;;5014987;29;20117;-79
2024/04/04 04:07:41;;;;;;;5.70;2.05;;;;;;;;;;5017318;29;20049;-80
2024/04/04 04:10:16;;;;;;;4.68;1.70;;;;;;;;;;5002783;29;20064;-80
2024/04/04 04:12:48;;;;;;;3.72;1.70;;;;;;;;;;5010432;29;20054;-81
2024/04/04 04:15:22;;;;;;;6.25;1.83;;;;;;;;;;5021248;29;20408;-80
2024/04/04 04:17:53;;;;;;;3.60;1.70;;;;;;;;;;5021886;29;20311;-82
2024/04/04 04:23:16;;;;;;;3.40;1.52;;;;;;;;;;5020925;29;20102;-80
2024/04/04 04:25:48;;;;;;;5.82;2.03;;;;;;;;;;5026424;29;20053;-81
2024/04/04 04:28:22;;;;;;;3.28;1.73;;;;;;;;;;5011100;29;20034;-81
2024/04/04 04:30:55;;;;;;;2.50;1.45;;;;;;;;;;5025901;29;20060;-81
2024/04/04 04:33:26;;;;;;;2.95;1.58;;;;;;;;;;4989720;29;20060;-81
2024/04/04 04:35:58;;;;;;;3.70;1.83;;;;;;;;;;5033121;29;20089;-80
2024/04/04 04:38:29;;;;;;;3.83;1.85;;;;;;;;;;5008098;29;20041;-80
2024/04/04 04:41:05;;;;;;;5.28;1.70;;;;;;;;;;5027980;29;20071;-80
2024/04/04 04:43:37;;;;;;;5.90;2.00;;;;;;;;;;5025393;29;20052;-80
2024/04/04 04:46:10;;;;;;;3.75;1.90;;;;;;;;;;5023870;29;20054;-81
2024/04/04 04:48:42;;;;;;;3.97;1.80;;;;;;;;;;5012478;29;20065;-81
2024/04/04 04:51:16;;;;;;;3.10;1.73;;;;;;;;;;5025266;29;20058;-80
2024/04/04 04:53:49;;;;;;;3.42;1.83;;;;;;;;;;5029554;29;20057;-80
2024/04/04 04:56:23;;;;;;;6.95;2.35;;;;;;;;;;5022719;29;20064;-79
2024/04/04 04:58:56;;;;;;;5.15;1.95;;;;;;;;;;5013332;29;20057;-81
2024/04/04 05:01:30;;;;;;;3.47;1.65;;;;;;;;;;5029063;29;20075;-81
2024/04/04 05:04:01;;;;;;;3.78;2.08;;;;;;;;;;5002057;29;20089;-81
2024/04/04 05:06:34;;;;;;;5.75;2.55;;;;;;;;;;5031256;29;20044;-80
2024/04/04 05:09:10;;;;;;;5.03;2.30;;;;;;;;;;5026807;29;20073;-81
2024/04/04 05:11:42;;;;;;;5.15;2.10;;;;;;;;;;5026900;29;20151;-81
2024/04/04 05:14:36;;;;;;;5.28;2.17;;;;;;;;;;5026258;29;20063;-80
2024/04/04 05:17:10;;;;;;;5.15;2.58;;;;;;;;;;5048157;29;20064;-80
2024/04/04 05:19:43;;;;;;;6.22;2.50;;;;;;;;;;5000834;29;20053;-81
2024/04/04 05:22:15;;;;;;;4.22;2.70;;;;;;;;;;5013573;29;20073;-79
2024/04/04 05:24:46;;;;;;;3.33;2.03;;;;;;;;;;5002219;29;20152;-81
2024/04/04 05:27:20;;;;;;;4.57;2.40;;;;;;;;;;5008773;29;20164;-81
2024/04/04 05:29:52;;;;;;;5.35;2.15;;;;;;;;;;4994599;29;20045;-81
2024/04/04 05:32:25;;;;;;;4.93;2.42;;;;;;;;;;4989081;29;20050;-82
2024/04/04 05:34:58;;;;;;;4.63;2.38;;;;;;;;;;5008376;29;20496;-82
2024/04/04 05:37:30;;;;;;;8.27;3.30;;;;;;;;;;5004728;29;20674;-82
2024/04/04 05:40:00;;;;;;;3.25;2.35;;;;;;;;;;5010855;29;21319;-82
2024/04/04 05:42:33;;;;;;;6.75;2.80;;;;;;;;;;5020720;29;20473;-82
2024/04/04 05:45:04;;;;;;;4.22;2.38;;;;;;;;;;4996034;29;20079;-82
2024/04/04 05:47:40;;;;;;;5.43;2.70;;;;;;;;;;5010371;29;20415;-83
2024/04/04 05:50:11;;;;;;;7.50;2.88;;;;;;;;;;5012919;29;20068;-83
2024/04/04 05:52:43;;;;;;;6.47;2.88;;;;;;;;;;5000392;29;20436;-82
2024/04/04 05:55:17;;;;;;;;;;;;;;;;;;5008489;29;20126;-82
2024/04/04 05:57:49;;;;;;;4.43;2.33;;;;;;;;;;5008799;29;19946;-83
2024/04/04 06:00:20;;;;;;;5.32;2.72;;;;;;;;;;4997990;29;20077;-82
2024/04/04 06:02:55;;;;;;;6.85;2.60;;;;;;;;;;5013397;29;20041;-83
2024/04/04 06:05:25;;;;;;;4.38;2.38;;;;;;;;;;5008368;29;20152;-82
2024/04/04 06:07:57;;;;;;;6.03;3.05;;;;;;;;;;5016278;29;20167;-81
2024/04/04 06:10:28;;;;;;;4.30;1.98;;;;;;;;;;4998721;29;20072;-82
2024/04/04 06:13:05;;;;;;;5.85;2.60;;;;;;;;;;5024799;29;20025;-85
2024/04/04 06:15:41;;;;;;;5.60;2.15;;;;;;;;;;5019540;29;20049;-83
2024/04/04 06:18:18;;;;;;;6.90;2.72;;;;;;;;;;5007323;29;20054;-83
2024/04/04 06:20:51;;;;;;;8.15;3.72;;;;;;;;;;5010611;29;20081;-84
2024/04/04 06:26:28;;;;;;;5.88;2.40;;;;;;;;;;5054448;29;20060;-83
2024/04/04 06:30:00;;;;;;;5.25;2.50;;;;;;;;;;4994492;29;20049;-84
2024/04/04 06:32:50;;;;;;;6.07;2.67;;;;;;;;;;5002672;29;20049;-81
2024/04/04 06:35:26;;;;;;;7.55;2.90;;;;;;;;;;5017731;29;20086;-82
2024/04/04 06:37:58;;;;;;;7.22;2.88;;;;;;;;;;5010494;29;20057;-80
2024/04/04 06:40:31;;;;;;;6.28;2.75;;;;;;;;;;5017146;29;20073;-80
2024/04/04 06:43:04;;;;;;;5.88;3.30;;;;;;;;;;4995580;29;20496;-80
2024/04/04 06:45:37;;;;;;;5.72;2.80;;;;;;;;;;5011142;29;20127;-80
2024/04/04 06:48:12;;;;;;;5.15;2.85;;;;;;;;;;4999666;29;20442;-79
2024/04/04 06:50:45;;;;;;;4.07;2.25;;;;;;;;;;4994804;29;20128;-79
2024/04/04 06:53:19;;;;;;;6.03;2.60;;;;;;;;;;5003482;29;20117;-79
2024/04/04 06:55:50;;;;;;;6.18;2.63;;;;;;;;;;5004763;29;20105;-81
2024/04/04 06:58:22;;;;;;;5.50;2.70;;;;;;;;;;5016665;29;20056;-80
2024/04/04 07:00:56;;;;;;;49.15;14.80;;;;;;;;;;5011813;29;20069;-80
2024/04/04 07:03:33;;;;;;;6.45;2.88;;;;;;;;;;4978158;29;20057;-80
2024/04/04 07:06:10;;;;;;;14.52;4.22;;;;;;;;;;5002415;29;20046;-79
2024/04/04 07:08:45;;;;;;;14.27;5.05;;;;;;;;;;5030566;29;20038;-80
2024/04/04 07:11:17;;;;;;;5.45;3.67;;;;;;;;;;4997118;29;20110;-80
2024/04/04 07:13:48;;;;;;;5.05;2.35;;;;;;;;;;4998519;29;20149;-80
2024/04/04 07:16:20;;;;;;;5.38;2.35;;;;;;;;;;5007862;29;20108;-81
2024/04/04 07:19:01;;;;;;;4.80;2.78;;;;;;;;;;5013261;29;20064;-79
2024/04/04 07:21:36;;;;;;;14.70;4.30;;;;;;;;;;5019975;29;20042;-82
2024/04/04 07:24:25;;;;;;;8.00;2.90;;;;;;;;;;4998991;29;20089;-82
2024/04/04 07:27:08;;;;;;;5.25;2.42;;;;;;;;;;5000556;29;20479;-81
2024/04/04 07:29:42;;;;;;;3.83;2.75;;;;;;;;;;5000153;29;20469;-81
2024/04/04 07:32:25;;;;;;;5.65;2.55;;;;;;;;;;4996437;29;20076;-81
2024/04/04 07:35:01;;;;;;;8.07;3.88;;;;;;;;;;5011123;29;20197;-81
2024/04/04 07:37:35;;;;;;;8.90;2.53;;;;;;;;;;5015757;29;20052;-81
2024/04/04 07:40:07;;;;;;;6.55;4.88;;;;;;;;;;5013938;29;20056;-81
2024/04/04 07:42:57;;;;;;;5.68;2.60;;;;;;;;;;5009462;29;20461;-80
2024/04/04 07:45:45;;;;;;;31.63;29.20;;;;;;;;;;5024168;29;20069;-82
2024/04/04 07:48:18;;;;;;;9.63;3.65;;;;;;;;;;4993076;29;20057;-82
2024/04/04 07:50:48;;;;;;;8.15;3.33;;;;;;;;;;5008147;29;20041;-82
2024/04/04 07:53:25;;;;;;;8.73;2.85;;;;;;;;;;4995398;29;20108;-82
2024/04/04 07:55:56;;;;;;;4.53;2.38;;;;;;;;;;4994951;29;20049;-81
2024/04/04 07:58:30;;;;;;;5.97;4.75;;;;;;;;;;5001884;29;20053;-81
2024/04/04 08:01:02;;;;;;;7.80;7.00;;;;;;;;;;5014484;29;20048;-83
2024/04/04 08:03:39;;;;;;;5.15;2.70;;;;;;;;;;5001744;29;20104;-85
2024/04/04 08:06:10;;;;;;;3.78;2.50;;;;;;;;;;5004868;29;20049;-81
2024/04/04 08:08:46;;;;;;;8.32;7.53;;;;;;;;;;4990444;29;20058;-83
2024/04/04 08:11:17;;;;;;;4.15;3.22;;;;;;;;;;5026464;29;20065;-83
2024/04/04 08:13:49;;;;;;;6.43;5.32;;;;;;;;;;4993614;29;20499;-83
2024/04/04 08:16:23;;;;;;;5.97;5.13;;;;;;;;;;5016614;29;20128;-83
2024/04/04 08:19:33;;;;;;;3.55;2.00;;;;;;;;;;4999443;29;20064;-83
2024/04/04 08:22:07;;;;;;;3.90;2.83;;;;;;;;;;5001159;29;20247;-84
2024/04/04 08:24:51;;;;;;;4.72;2.92;;;;;;;;;;4998386;29;21145;-85
2024/04/04 08:27:26;;;;;;;6.07;3.60;;;;;;;;;;5004266;29;20130;-84
2024/04/04 08:30:00;;;;;;;4.15;3.25;;;;;;;;;;4982366;29;22544;-85
2024/04/04 08:32:31;;;;;;;4.60;3.45;;;;;;;;;;5002437;29;20076;-84
2024/04/04 08:35:13;;;;;;;6.70;3.45;;;;;;;;;;4989691;29;20062;-83
2024/04/04 08:38:01;;;;;;;4.07;2.50;;;;;;;;;;5023513;29;20049;-84
2024/04/04 08:40:42;;;;;;;4.20;2.33;;;;;;;;;;5013212;29;20042;-83
2024/04/04 08:43:21;;;;;;;5.32;2.60;;;;;;;;;;4992429;29;20057;-84
2024/04/04 08:46:25;;;;;;;3.88;2.47;;;;;;;;;;4993337;29;20054;-82
2024/04/04 08:48:56;;;;;;;4.43;2.67;;;;;;;;;;4994052;29;20049;-83
2024/04/04 08:51:51;;;;;;;4.90;3.42;;;;;;;;;;5026329;29;20045;-82
2024/04/04 08:54:48;;;;;;;3.97;2.80;;;;;;;;;;5025896;29;20045;-83
2024/04/04 08:57:26;;;;;;;5.53;3.30;;;;;;;;;;5006818;29;20169;-82
2024/04/04 09:00:06;;;;;;;3.60;2.60;;;;;;;;;;4995838;29;20157;-82
2024/04/04 09:02:47;;;;;;;4.68;2.58;;;;;;;;;;4992495;29;20065;-82
2024/04/04 09:05:23;;;;;;;6.33;2.40;;;;;;;;;;5006924;29;20046;-82
2024/04/04 09:11:00;;;;;;;6.20;2.70;;;;;;;;;;4984013;29;20076;-82
2024/04/04 09:17:39;;;;;;;3.30;2.33;;;;;;;;;;4973760;29;20069;-82
2024/04/04 09:21:32;;;;;;;5.05;2.60;;;;;;;;;;5005912;29;20468;-82
2024/04/04 09:24:37;;;;;;;4.25;3.08;;;;;;;;;;5023701;29;20068;-83
2024/04/04 09:27:25;;;;;;;5.00;2.80;;;;;;;;;;5019563;29;20056;-82
2024/04/04 09:30:11;;;;;;;3.85;2.50;;;;;;;;;;5008669;29;20045;-82
2024/04/04 09:36:14;;;;;;;4.88;2.00;;;;;;;;;;5012770;29;20050;-81
2024/04/04 09:38:56;;;;;;;3.28;1.85;;;;;;;;;;4997795;29;20053;-81
2024/04/04 09:51:00;;;;;;;2.22;1.55;;;;;;;;;;4908351;30;20562;-82
2024/04/04 09:55:13;;;;;;;2.13;1.52;;;;;;;;;;4895526;29;20084;-83
2024/04/04 09:58:29;;;;;;;2.67;1.80;;;;;;;;;;4947357;29;20104;-81
2024/04/04 10:01:43;;;;;;;5.18;1.95;;;;;;;;;;4955819;29;20069;-82
2024/04/04 10:05:39;;;;;;;2.17;1.73;;;;;;;;;;4967310;29;20054;-82
2024/04/04 10:08:22;;;;;;;3.50;1.65;;;;;;;;;;4974381;29;20059;-82
2024/04/04 10:11:04;;;;;;;3.78;2.00;;;;;;;;;;5002255;29;20045;-83
2024/04/04 10:13:48;;;;;;;4.03;1.88;;;;;;;;;;5000078;29;20064;-83
2024/04/04 10:16:38;;;;;;;3.42;1.35;;;;;;;;;;4997869;29;21211;-82
2024/04/04 10:19:14;;;;;;;3.08;1.60;;;;;;;;;;5006696;29;20056;-82
2024/04/04 10:26:24;;;;;;;3.60;2.20;;;;;;;;;;4999785;29;20085;-83
2024/04/04 10:29:03;;;;;;;4.68;1.90;;;;;;;;;;4981925;29;20678;-83
2024/04/04 10:32:01;;;;;;;2.95;2.25;;;;;;;;;;4962750;29;20154;-83
2024/04/04 10:35:33;;;;;;;2.25;1.60;;;;;;;;;;4970037;29;20094;-82
2024/04/04 10:38:17;;;;;;;2.45;1.55;;;;;;;;;;4957158;29;20177;-82
2024/04/04 10:41:09;;;;;;;2.67;1.63;;;;;;;;;;4968595;29;20069;-83
2024/04/04 10:43:47;;;;;;;2.08;1.55;;;;;;;;;;5002059;29;20487;-84
2024/04/04 10:46:21;;;;;;;2.28;1.20;;;;;;;;;;4986285;29;20458;-82
2024/04/04 10:55:44;;;;;;;4.65;1.67;;;;;;;;;;5013670;29;20148;-82
2024/04/04 10:58:18;;;;;;;1.35;1.15;;;;;;;;;;4990350;29;20057;-80
2024/04/04 11:00:59;;;;;;;1.60;1.20;;;;;;;;;;5011389;29;20065;-81
2024/04/04 11:03:30;;;;;;;1.85;1.10;;;;;;;;;;4996747;29;20055;-81
2024/04/04 11:06:03;;;;;;;4.47;1.58;;;;;;;;;;4993609;29;20057;-80
2024/04/04 11:08:40;;;;;;;5.60;1.65;;;;;;;;;;5011426;29;20057;-79
2024/04/04 11:11:15;;;;;;;1.75;0.90;;;;;;;;;;4993967;29;20112;-81
2024/04/04 11:13:49;;;;;;;2.97;1.40;;;;;;;;;;4982071;29;20053;-81
2024/04/04 11:16:23;;;;;;;2.80;1.10;;;;;;;;;;4979518;29;21285;-82
2024/04/04 11:18:55;;;;;;;3.30;1.08;;;;;;;;;;4998005;29;20049;-81
2024/04/04 11:21:39;;;;;;;7.85;1.10;;;;;;;;;;4996754;29;20079;-80
2024/04/04 11:24:13;;;;;;;2.92;1.02;;;;;;;;;;5013372;29;20049;-80
2024/04/04 11:26:45;;;;;;;5.03;1.05;;;;;;;;;;5003401;29;20071;-80
2024/04/04 11:29:16;;;;;;;3.00;1.15;;;;;;;;;;5006592;29;20117;-81
2024/04/04 11:31:53;;;;;;;2.65;1.00;;;;;;;;;;4976519;29;20049;-80
2024/04/04 11:34:25;;;;;;;2.17;0.90;;;;;;;;;;4978512;29;20055;-80
2024/04/04 11:36:58;;;;;;;1.35;0.70;;;;;;;;;;5006004;29;20041;-80
2024/04/04 11:39:30;;;;;;;1.20;0.68;;;;;;;;;;5009872;29;20048;-81
2024/04/04 11:42:04;;;;;;;2.08;0.80;;;;;;;;;;4985400;29;20191;-81
2024/04/04 11:44:37;;;;;;;2.08;0.93;;;;;;;;;;5008382;29;20053;-80
2024/04/04 11:47:15;;;;;;;2.28;0.88;;;;;;;;;;5010029;29;20057;-81
2024/04/04 11:49:55;;;;;;;1.97;0.93;;;;;;;;;;4938616;29;20185;-80
2024/04/04 11:52:50;;;;;;;2.22;0.70;;;;;;;;;;4966230;29;20542;-81
2024/04/04 11:55:25;;;;;;;2.67;0.90;;;;;;;;;;4981730;29;20481;-81
2024/04/04 11:57:55;;;;;;;1.00;0.77;;;;;;;;;;4991915;29;20079;-81
2024/04/04 12:00:27;;;;;;;2.25;0.80;;;;;;;;;;5000557;29;20764;-81
2024/04/04 12:03:03;;;;;;;3.03;0.73;;;;;;;;;;5005234;29;20057;-81
2024/04/04 12:05:39;;;;;;;4.07;1.08;;;;;;;;;;4996220;29;20687;-81
2024/04/04 12:08:28;;;;;;;1.63;0.80;;;;;;;;;;4995081;29;20152;-81
2024/04/04 12:11:14;;;;;;;2.78;1.05;;;;;;;;;;5013691;29;20069;-81
2024/04/04 12:13:47;;;;;;;2.10;1.10;;;;;;;;;;5011480;29;20030;-81
2024/04/04 12:16:26;;;;;;;5.53;1.50;;;;;;;;;;4998336;29;20044;-82
2024/04/04 12:21:48;;;;;;;5.05;1.30;;;;;;;;;;5009286;29;20060;-82
2024/04/04 12:24:20;;;;;;;2.70;1.17;;;;;;;;;;5005470;29;20058;-81
2024/04/04 12:26:52;;;;;;;4.80;1.08;;;;;;;;;;5016035;29;20518;-82
2024/04/04 12:29:28;;;;;;;2.17;0.93;;;;;;;;;;4998531;29;20080;-81
2024/04/04 12:32:19;;;;;;;2.10;0.75;;;;;;;;;;4999803;29;20518;-82
2024/04/04 12:35:10;;;;;;;2.95;1.00;;;;;;;;;;5020021;29;20053;-82
2024/04/04 12:41:56;;;;;;;4.47;1.17;;;;;;;;;;5018172;29;20074;-81
2024/04/04 12:44:50;;;;;;;2.80;0.82;;;;;;;;;;5001622;29;20127;-82
2024/04/04 12:51:03;;;;;;;1.75;0.70;;;;;;;;;;5024697;29;20511;-82
2024/04/04 12:54:03;;;;;;;3.53;1.00;;;;;;;;;;5016680;29;20068;-82
2024/04/04 12:57:00;;;;;;;2.67;1.02;;;;;;;;;;5044995;29;20045;-82
2024/04/04 12:59:36;;;;;;;4.13;0.90;;;;;;;;;;5034248;29;21090;-82
2024/04/04 13:02:23;;;;;;;2.33;1.00;;;;;;;;;;5004049;29;20511;-82
2024/04/04 13:05:15;;;;;;;3.75;1.00;;;;;;;;;;5017566;29;20041;-83
2024/04/04 13:07:51;;;;;;;5.20;1.42;;;;;;;;;;5016668;29;20156;-82
2024/04/04 13:10:24;;;;;;;4.25;1.15;;;;;;;;;;5033098;29;20150;-83
2024/04/04 13:15:50;;;;;;;3.10;1.13;;;;;;;;;;5018595;29;20110;-83
2024/04/04 13:18:21;;;;;;;3.20;1.00;;;;;;;;;;5023012;29;20174;-82
2024/04/04 13:23:57;;;;;;;4.07;1.25;;;;;;;;;;4995058;29;20048;-83
2024/04/04 13:26:38;;;;;;;3.67;1.25;;;;;;;;;;5014936;29;20045;-81
2024/04/04 13:29:13;;;;;;;2.42;1.00;;;;;;;;;;5005022;29;20053;-80
2024/04/04 13:31:44;;;;;;;2.60;0.90;;;;;;;;;;5015091;29;20044;-81
2024/04/04 13:34:20;;;;;;;2.47;1.00;;;;;;;;;;5007699;29;20049;-81
2024/04/04 13:36:51;;;;;;;4.07;1.48;;;;;;;;;;5021595;29;20771;-82
2024/04/04 13:39:25;;;;;;;2.30;0.88;;;;;;;;;;4996096;29;20083;-82
2024/04/04 13:41:57;;;;;;;3.90;1.35;;;;;;;;;;5023843;29;20526;-82
2024/04/04 13:44:30;;;;;;;3.90;1.45;;;;;;;;;;4997949;29;20065;-82
2024/04/04 13:47:04;;;;;;;4.88;1.20;;;;;;;;;;5003053;29;20072;-83
2024/04/04 13:50:09;;;;;;;6.90;2.03;;;;;;;;;;4991483;29;20189;-84
2024/04/04 13:52:40;;;;;;;5.70;1.38;;;;;;;;;;5018213;29;20038;-83
2024/04/04 13:58:45;;;;;;;3.30;1.42;;;;;;;;;;4979694;29;20100;-83
2024/04/04 14:01:37;;;;;;;3.58;1.10;;;;;;;;;;5004921;29;20060;-83
2024/04/04 14:04:12;;;;;;;4.30;1.38;;;;;;;;;;5024218;29;20062;-82
2024/04/04 14:06:46;;;;;;;5.80;1.42;;;;;;;;;;4995501;29;20045;-83
2024/04/04 14:12:36;;;;;;;2.75;0.98;;;;;;;;;;5000424;29;20506;-83
2024/04/04 14:15:46;;;;;;;3.25;0.80;;;;;;;;;;5000879;29;20046;-83
2024/04/04 14:18:18;;;;;;;2.35;0.70;;;;;;;;;;4998534;29;20093;-83
2024/04/04 14:20:49;;;;;;;2.55;0.80;;;;;;;;;;4983143;29;20334;-83
2024/04/04 14:23:23;;;;;;;2.40;1.02;;;;;;;;;;4997083;29;20057;-83
2024/04/04 14:25:54;;;;;;;3.20;1.08;;;;;;;;;;4992603;29;20065;-83
2024/04/04 14:28:26;;;;;;;2.13;0.70;;;;;;;;;;5020389;29;20098;-83
2024/04/04 14:30:59;;;;;;;2.42;0.70;;;;;;;;;;5024063;29;20502;-82
2024/04/04 14:33:31;;;;;;;2.05;0.88;;;;;;;;;;5003088;29;20054;-82
2024/04/04 14:36:05;;;;;;;2.00;0.80;;;;;;;;;;4999037;29;20054;-81
2024/04/04 14:38:36;;;;;;;6.07;1.07;;;;;;;;;;5026371;29;20061;-82
2024/04/04 14:41:07;;;;;;;2.10;0.70;;;;;;;;;;5013775;29;20053;-81
2024/04/04 14:43:40;;;;;;;2.53;0.90;;;;;;;;;;5022142;29;20087;-81
2024/04/04 14:46:14;;;;;;;3.17;1.10;;;;;;;;;;5021209;29;20102;-81
2024/04/04 14:48:48;;;;;;;2.00;1.00;;;;;;;;;;5011645;29;20050;-81
2024/04/04 14:51:24;;;;;;;2.25;0.70;;;;;;;;;;5012223;29;20113;-81
2024/04/04 14:53:58;;;;;;;2.50;0.77;;;;;;;;;;5015096;29;20057;-82
2024/04/04 14:56:29;;;;;;;4.00;0.98;;;;;;;;;;5010886;29;20117;-82
2024/04/04 14:59:05;;;;;;;4.43;1.20;;;;;;;;;;5011258;29;20066;-81
2024/04/04 15:01:38;;;;;;;3.03;0.90;;;;;;;;;;5005757;29;20500;-82
2024/04/04 15:04:10;;;;;;;4.07;1.40;;;;;;;;;;4979106;29;20060;-81
2024/04/04 15:06:42;;;;;;;5.18;0.90;;;;;;;;;;5028493;29;20044;-82
2024/04/04 15:09:14;;;;;;;4.22;1.50;;;;;;;;;;5015704;29;20053;-81
2024/04/04 15:11:47;;;;;;;3.10;1.48;;;;;;;;;;5016477;29;20060;-81
2024/04/04 15:14:20;;;;;;;2.70;1.10;;;;;;;;;;5001021;29;20456;-81
2024/04/04 15:16:53;;;;;;;4.07;1.23;;;;;;;;;;5019894;29;20132;-82
2024/04/04 15:19:27;;;;;;;2.72;0.77;;;;;;;;;;5005914;29;20038;-83
2024/04/04 15:21:58;;;;;;;3.33;0.90;;;;;;;;;;5017678;29;20061;-81
2024/04/04 15:24:30;;;;;;;3.33;1.20;;;;;;;;;;5016688;29;20191;-81
2024/04/04 15:27:01;;;;;;;5.93;1.73;;;;;;;;;;5039077;29;20105;-82
2024/04/04 15:29:33;;;;;;;2.28;1.00;;;;;;;;;;5021135;29;20044;-82
2024/04/04 15:32:08;;;;;;;3.92;1.67;;;;;;;;;;5020329;29;20441;-82
2024/04/04 15:34:40;;;;;;;4.22;1.67;;;;;;;;;;5018993;29;20084;-82
2024/04/04 15:37:13;;;;;;;5.05;1.50;;;;;;;;;;5024118;29;20049;-82
2024/04/04 15:39:46;;;;;;;3.10;1.45;;;;;;;;;;5008300;29;20053;-82
2024/04/04 15:42:19;;;;;;;3.60;1.73;;;;;;;;;;4992630;29;20084;-82
2024/04/04 15:44:54;;;;;;;4.70;1.55;;;;;;;;;;5020946;29;20073;-81
2024/04/04 15:47:29;;;;;;;5.85;1.55;;;;;;;;;;5013936;29;20148;-83
2024/04/04 15:50:03;;;;;;;3.42;1.20;;;;;;;;;;4985171;29;20053;-83
2024/04/04 15:52:35;;;;;;;4.28;1.50;;;;;;;;;;5020594;29;20078;-84
2024/04/04 15:55:07;;;;;;;4.40;1.67;;;;;;;;;;5019494;29;20081;-84
2024/04/04 15:57:41;;;;;;;4.95;1.52;;;;;;;;;;5019637;29;20053;-84
2024/04/04 16:00:16;;;;;;;5.03;1.40;;;;;;;;;;5019189;29;20091;-84
2024/04/04 16:02:50;;;;;;;3.63;1.50;;;;;;;;;;5009498;29;20048;-85
2024/04/04 16:05:23;;;;;;;8.50;1.92;;;;;;;;;;5005617;29;20523;-82
2024/04/04 16:07:55;;;;;;;4.68;1.40;;;;;;;;;;4997590;29;20049;-85
2024/04/04 16:10:27;;;;;;;7.53;2.00;;;;;;;;;;4974460;29;20129;-85
2024/04/04 16:12:58;;;;;;;5.70;1.90;;;;;;;;;;5030167;29;20064;-86
2024/04/04 16:15:30;;;;;;;5.10;2.10;;;;;;;;;;4992348;29;20057;-85
2024/04/04 16:18:04;;;;;;;6.35;1.67;;;;;;;;;;5012642;29;20069;-82
2024/04/04 16:20:39;;;;;;;5.57;1.75;;;;;;;;;;4992251;29;20061;-84
2024/04/04 16:23:10;;;;;;;4.40;1.55;;;;;;;;;;5003378;29;20045;-84
2024/04/04 16:25:42;;;;;;;6.80;2.55;;;;;;;;;;4998438;29;20056;-85
2024/04/04 16:28:14;;;;;;;7.30;2.10;;;;;;;;;;5007218;29;20132;-82
2024/04/04 16:30:46;;;;;;;5.00;1.60;;;;;;;;;;5005433;29;20130;-85
2024/04/04 16:33:18;;;;;;;5.95;1.70;;;;;;;;;;5012378;29;20072;-85
2024/04/04 16:35:50;;;;;;;5.40;1.58;;;;;;;;;;4994902;29;20057;-85
2024/04/04 16:38:23;;;;;;;3.65;1.80;;;;;;;;;;4974310;29;20503;-84
2024/04/04 16:40:55;;;;;;;4.97;1.83;;;;;;;;;;5008388;29;20056;-84
2024/04/04 16:43:29;;;;;;;5.28;1.60;;;;;;;;;;5010155;29;20101;-83